KRAC/RAC METAR and TAF weather

Enter ICAO airport designator
Station Type Date Time Source
KRAC METAR 2022/12/08 13:12 UTC NOAA

KRAC 081312Z AUTO 05010KT 10SM OVC030 02/M03 A3041 RMK AO2 T00221028


Station Type Date Time Source
KRAC Decoded METAR 2022/12/08 13:12 UTC NOAA

BATTEN INTERNATIONAL AIRPORT, WI, United States (KRAC) 42-46N 87-49W 203M
Dec 08, 2022 - 08:12 AM EST / 2022.12.08 1312 UTC
Wind: from the NE (050 degrees) at 12 MPH (10 KT):0
Visibility: 10 mile(s):0
Sky conditions: overcast
Temperature: 36.0 F (2.2 C)
Dew Point: 27.0 F (-2.8 C)
Relative Humidity: 69%
Pressure (altimeter): 30.41 in. Hg (1029 hPa)
ob: KRAC 081312Z AUTO 05010KT 10SM OVC030 02/M03 A3041 RMK AO2 T00221028
cycle: 13

Station Type Date Time Source
KRAC TAF UTC NOAA

Error!

Example: see airport list